Time;durP1;ratioP1;P1;durP2;ratioP2;P2;SDS_P1;SDS_P2;PMS_P1;PMS_P2;Temp;Humidity;BMP_temperature;BMP_pressure;BME280_temperature;BME280_humidity;BME280_pressure;Samples;Min_cycle;Max_cycle;Signal;HPM_P1;HPM_P2
2022/11/24 00:01:10;;;;;;;16.25;2.83;;;;;;;5.85;100.00;98288.69;5065445;28;20059;-78
2022/11/24 00:03:37;;;;;;;9.13;2.10;;;;;;;5.82;100.00;98280.97;5068843;28;20363;-78
2022/11/24 00:06:06;;;;;;;9.07;2.55;;;;;;;5.93;100.00;98309.44;5073296;28;20040;-78
2022/11/24 00:08:34;;;;;;;9.80;2.55;;;;;;;5.69;100.00;98304.97;5061068;28;20061;-78
2022/11/24 00:11:05;;;;;;;12.45;2.50;;;;;;;5.67;100.00;98315.94;5072108;28;20048;-78
2022/11/24 00:13:33;;;;;;;6.05;2.13;;;;;;;5.67;100.00;98315.09;5065979;28;20170;-78
2022/11/24 00:16:11;;;;;;;7.82;2.17;;;;;;;5.52;100.00;98303.34;5071872;28;20090;-78
2022/11/24 00:18:38;;;;;;;15.63;2.75;;;;;;;5.51;100.00;98321.38;5066494;28;20041;-80
2022/11/24 00:21:05;;;;;;;8.50;2.45;;;;;;;5.31;100.00;98313.69;5073171;28;20435;-78
2022/11/24 00:23:32;;;;;;;12.60;2.10;;;;;;;5.39;100.00;98322.75;5063808;28;20538;-78
2022/11/24 00:26:05;;;;;;;13.77;2.55;;;;;;;5.27;100.00;98320.44;5065552;28;20056;-80
2022/11/24 00:28:33;;;;;;;11.05;2.72;;;;;;;5.12;100.00;98293.34;5058244;28;20051;-80
2022/11/24 00:31:00;;;;;;;10.85;2.00;;;;;;;5.16;100.00;98309.16;5071423;28;20311;-78
2022/11/24 00:33:26;;;;;;;14.00;2.85;;;;;;;5.08;100.00;98305.47;5065372;28;20059;-78
2022/11/24 00:35:56;;;;;;;8.68;1.70;;;;;;;5.00;100.00;98315.41;5062554;28;20136;-78
2022/11/24 00:38:23;;;;;;;18.48;1.95;;;;;;;4.87;100.00;98322.16;5061427;28;20051;-78
2022/11/24 00:40:50;;;;;;;7.38;1.67;;;;;;;4.83;100.00;98312.72;5071168;28;20056;-78
2022/11/24 00:43:19;;;;;;;7.32;1.85;;;;;;;4.78;100.00;98309.72;5067079;28;20395;-78
2022/11/24 00:45:45;;;;;;;10.93;2.20;;;;;;;4.81;100.00;98324.69;5067584;28;20048;-78
2022/11/24 00:48:12;;;;;;;9.30;1.98;;;;;;;4.79;100.00;98324.88;5067666;28;20055;-78
2022/11/24 00:50:39;;;;;;;15.60;1.85;;;;;;;4.70;100.00;98326.72;5065608;28;20053;-78
2022/11/24 00:53:06;;;;;;;10.88;2.17;;;;;;;4.66;100.00;98324.53;5070373;28;20231;-78
2022/11/24 00:55:32;;;;;;;10.88;2.00;;;;;;;4.74;100.00;98341.53;5067484;28;20095;-78
2022/11/24 00:57:59;;;;;;;10.15;2.25;;;;;;;4.77;100.00;98348.41;5068529;28;20209;-78
2022/11/24 01:00:27;;;;;;;9.35;2.30;;;;;;;4.75;100.00;98350.44;5070392;28;20514;-78
2022/11/24 01:02:53;;;;;;;14.68;2.00;;;;;;;4.59;100.00;98346.72;5065194;28;20072;-78
2022/11/24 01:05:20;;;;;;;12.50;2.72;;;;;;;4.63;100.00;98344.53;5054619;28;20415;-78
2022/11/24 01:07:47;;;;;;;12.15;2.15;;;;;;;4.63;100.00;98349.91;5061342;28;20044;-78
2022/11/24 01:10:14;;;;;;;10.90;2.47;;;;;;;4.68;100.00;98349.41;5071088;28;20052;-78
2022/11/24 01:12:40;;;;;;;11.45;2.13;;;;;;;4.85;100.00;98369.97;5069479;28;20052;-78
2022/11/24 01:15:07;;;;;;;6.38;1.60;;;;;;;4.76;100.00;98370.97;5066307;28;20056;-78
2022/11/24 01:17:35;;;;;;;13.35;2.00;;;;;;;4.78;100.00;98368.94;5065730;28;20426;-78
2022/11/24 01:20:03;;;;;;;8.18;1.80;;;;;;;4.90;100.00;98370.28;5064271;28;20052;-78
2022/11/24 01:22:30;;;;;;;16.13;2.25;;;;;;;4.99;100.00;98364.94;5061384;28;20056;-78
2022/11/24 01:24:56;;;;;;;11.20;2.30;;;;;;;4.90;100.00;98354.13;5064366;28;20040;-78
2022/11/24 01:27:23;;;;;;;18.50;2.38;;;;;;;4.95;100.00;98351.78;5069085;28;20132;-78
2022/11/24 01:29:50;;;;;;;15.10;3.70;;;;;;;4.99;100.00;98378.41;5084926;28;20137;-78
2022/11/24 01:32:16;;;;;;;8.32;2.45;;;;;;;5.07;100.00;98373.84;5073580;28;20049;-78
2022/11/24 01:34:44;;;;;;;11.77;2.35;;;;;;;5.00;100.00;98367.44;5083396;28;20048;-79
2022/11/24 01:37:11;;;;;;;11.57;2.00;;;;;;;5.01;100.00;98369.13;5083882;28;20044;-80
2022/11/24 01:39:38;;;;;;;10.25;2.13;;;;;;;5.05;100.00;98378.56;5087202;28;20043;-80
2022/11/24 01:42:04;;;;;;;11.40;2.42;;;;;;;5.12;100.00;98378.72;5087809;28;20407;-81
2022/11/24 01:44:31;;;;;;;12.13;2.50;;;;;;;5.12;100.00;98379.56;5084492;28;20043;-79
2022/11/24 01:47:02;;;;;;;5.72;2.25;;;;;;;5.10;100.00;98376.22;5085910;28;20178;-79
2022/11/24 01:49:37;;;;;;;8.27;2.22;;;;;;;5.07;100.00;98373.00;5087189;28;20079;-80
2022/11/24 01:52:11;;;;;;;15.50;2.30;;;;;;;4.99;100.00;98373.00;5080980;28;20040;-78
2022/11/24 01:54:41;;;;;;;12.18;2.10;;;;;;;5.01;100.00;98376.38;5079983;28;20047;-78
2022/11/24 01:57:12;;;;;;;15.68;2.00;;;;;;;5.16;100.00;98407.00;5077905;28;20420;-78
2022/11/24 01:59:39;;;;;;;15.93;3.35;;;;;;;5.12;100.00;98397.59;5085285;28;20464;-78
2022/11/24 02:02:06;;;;;;;17.40;2.83;;;;;;;5.12;100.00;98400.28;5081383;28;20055;-78
2022/11/24 02:04:35;;;;;;;11.35;2.13;;;;;;;5.09;100.00;98388.00;5089755;28;20086;-78
2022/11/24 02:07:04;;;;;;;5.45;1.75;;;;;;;5.08;100.00;98389.00;5084230;28;20058;-78
2022/11/24 02:09:37;;;;;;;11.43;2.10;;;;;;;5.23;100.00;98399.94;5089963;28;20056;-79
2022/11/24 02:12:06;;;;;;;8.43;2.10;;;;;;;5.24;100.00;98406.16;5073972;28;20132;-78
2022/11/24 02:14:35;;;;;;;7.43;1.95;;;;;;;5.22;100.00;98400.94;5085437;28;20054;-78
2022/11/24 02:17:01;;;;;;;12.10;2.47;;;;;;;5.29;100.00;98411.88;5079168;28;20181;-78
2022/11/24 02:19:37;;;;;;;20.52;2.33;;;;;;;5.26;100.00;98406.84;5090158;28;20058;-78
2022/11/24 02:22:04;;;;;;;10.07;1.92;;;;;;;5.28;100.00;98413.75;5085611;28;20161;-78
2022/11/24 02:24:42;;;;;;;8.57;1.77;;;;;;;5.30;100.00;98411.72;5084316;28;20055;-78
2022/11/24 02:27:10;;;;;;;12.27;2.10;;;;;;;5.27;100.00;98408.53;5072942;28;20054;-79
2022/11/24 02:29:37;;;;;;;7.85;1.90;;;;;;;5.17;100.00;98400.63;5085990;28;20046;-78
2022/11/24 02:32:07;;;;;;;12.05;2.50;;;;;;;5.22;100.00;98425.19;5085335;28;20105;-78
2022/11/24 02:34:33;;;;;;;10.13;1.75;;;;;;;5.23;100.00;98420.66;5084503;28;20047;-78
2022/11/24 02:37:00;;;;;;;8.82;2.15;;;;;;;5.21;100.00;98423.53;5089627;28;20048;-78
2022/11/24 02:39:27;;;;;;;14.02;2.22;;;;;;;5.31;100.00;98434.13;5089731;28;20048;-78
2022/11/24 02:41:56;;;;;;;9.15;1.42;;;;;;;5.20;100.00;98418.31;5088071;28;20483;-80
2022/11/24 02:44:30;;;;;;;16.48;2.65;;;;;;;5.16;100.00;98404.31;5082152;28;20068;-78
2022/11/24 02:47:05;;;;;;;10.27;1.70;;;;;;;5.24;100.00;98415.09;5086850;28;20048;-78
2022/11/24 02:49:31;;;;;;;8.52;1.50;;;;;;;5.22;100.00;98418.97;5087191;28;20047;-80
2022/11/24 02:51:58;;;;;;;15.07;2.10;;;;;;;5.17;100.00;98403.31;5090554;28;20045;-78
2022/11/24 02:54:25;;;;;;;11.57;2.10;;;;;;;5.27;100.00;98412.06;5087201;28;20511;-79
2022/11/24 02:56:52;;;;;;;13.73;1.63;;;;;;;5.08;100.00;98391.69;5089307;28;20388;-79
2022/11/24 02:59:18;;;;;;;9.50;1.42;;;;;;;5.19;100.00;98417.44;5091090;28;20040;-80
2022/11/24 03:01:46;;;;;;;8.38;2.20;;;;;;;5.14;100.00;98399.09;5088558;28;20132;-80
2022/11/24 03:04:13;;;;;;;8.65;1.98;;;;;;;5.09;100.00;98408.72;5091286;28;20403;-80
2022/11/24 03:06:40;;;;;;;6.97;1.80;;;;;;;5.04;100.00;98419.97;5088685;28;20058;-79
2022/11/24 03:09:06;;;;;;;10.25;1.58;;;;;;;5.00;100.00;98426.72;5089808;28;20568;-80
2022/11/24 03:11:33;;;;;;;7.70;1.88;;;;;;;4.97;100.00;98432.44;5088070;28;20088;-80
2022/11/24 03:14:00;;;;;;;9.77;2.38;;;;;;;5.02;100.00;98438.16;5090572;28;20072;-80
2022/11/24 03:16:26;;;;;;;22.38;2.63;;;;;;;5.12;100.00;98436.16;5086137;28;20043;-80
2022/11/24 03:18:54;;;;;;;13.32;2.17;;;;;;;5.20;100.00;98426.38;5091536;28;20062;-80
2022/11/24 03:21:21;;;;;;;9.07;2.08;;;;;;;5.13;100.00;98440.53;5091834;28;20036;-80
2022/11/24 03:23:47;;;;;;;12.60;2.22;;;;;;;5.04;100.00;98425.34;5088704;28;20139;-80
2022/11/24 03:26:16;;;;;;;8.70;1.92;;;;;;;5.11;100.00;98450.63;5091032;28;20050;-80
2022/11/24 03:28:43;;;;;;;6.25;1.88;;;;;;;4.98;100.00;98434.09;5092372;28;20101;-80
2022/11/24 03:31:11;;;;;;;9.43;2.85;;;;;;;4.96;100.00;98442.34;5086104;28;20055;-80
2022/11/24 03:33:37;;;;;;;10.30;1.52;;;;;;;5.02;100.00;98461.56;5092545;28;20046;-80
2022/11/24 03:36:07;;;;;;;7.88;1.77;;;;;;;4.94;100.00;98444.38;5087515;28;20479;-80
2022/11/24 03:38:33;;;;;;;11.10;1.73;;;;;;;4.88;100.00;98445.06;5092225;28;20446;-80
2022/11/24 03:41:00;;;;;;;7.57;1.30;;;;;;;4.91;100.00;98460.88;5089168;28;20498;-79
2022/11/24 03:43:27;;;;;;;9.40;2.55;;;;;;;5.05;100.00;98469.31;5090479;28;20058;-80
2022/11/24 03:45:53;;;;;;;7.53;1.58;;;;;;;4.98;100.00;98458.34;5091136;28;20476;-80
2022/11/24 03:48:20;;;;;;;7.63;1.67;;;;;;;5.06;100.00;98465.59;5087131;28;20468;-79
2022/11/24 03:50:53;;;;;;;11.88;2.08;;;;;;;5.04;100.00;98460.38;5087216;28;20423;-79
2022/11/24 03:53:22;;;;;;;8.85;1.70;;;;;;;4.93;100.00;98458.84;5093883;28;20048;-79
2022/11/24 03:55:48;;;;;;;8.60;1.65;;;;;;;5.01;100.00;98476.88;5094745;28;20043;-79
2022/11/24 03:58:15;;;;;;;5.32;1.52;;;;;;;4.92;100.00;98457.19;5087120;28;20062;-79
2022/11/24 04:00:42;;;;;;;8.27;1.80;;;;;;;5.08;100.00;98468.97;5081255;28;20048;-80
2022/11/24 04:03:08;;;;;;;12.63;1.52;;;;;;;5.11;100.00;98463.25;5091318;28;20054;-80
2022/11/24 04:05:35;;;;;;;8.07;1.70;;;;;;;5.16;100.00;98468.16;5090855;28;20121;-79
2022/11/24 04:08:04;;;;;;;4.22;1.65;;;;;;;5.27;100.00;98465.13;5092202;28;20064;-80
2022/11/24 04:10:35;;;;;;;6.97;1.33;;;;;;;5.28;100.00;98462.28;5086622;28;20406;-80
2022/11/24 04:13:01;;;;;;;7.78;1.90;;;;;;;5.38;100.00;98470.16;5079023;28;20047;-80
2022/11/24 04:15:28;;;;;;;9.65;1.48;;;;;;;5.47;100.00;98489.88;5080845;28;20070;-80
2022/11/24 04:17:56;;;;;;;9.93;1.83;;;;;;;5.48;100.00;98495.13;5090385;28;20406;-80
2022/11/24 04:20:22;;;;;;;8.13;1.60;;;;;;;5.44;100.00;98482.97;5092401;28;20040;-79
2022/11/24 04:22:50;;;;;;;9.10;2.03;;;;;;;5.42;100.00;98463.44;5084635;28;20044;-80
2022/11/24 04:25:17;;;;;;;4.72;1.20;;;;;;;5.50;100.00;98482.28;5089768;28;20410;-79
2022/11/24 04:27:45;;;;;;;8.88;1.50;;;;;;;5.52;100.00;98486.69;5089474;28;20052;-80
2022/11/24 04:30:12;;;;;;;9.38;1.58;;;;;;;5.43;100.00;98477.75;5087071;28;20127;-80
2022/11/24 04:32:38;;;;;;;11.57;2.20;;;;;;;5.44;100.00;98482.13;5088355;28;20067;-79
2022/11/24 04:35:06;;;;;;;7.20;1.25;;;;;;;5.49;100.00;98479.75;5085644;28;20044;-80
2022/11/24 04:37:33;;;;;;;6.88;1.38;;;;;;;5.48;100.00;98484.31;5091262;28;20075;-80
2022/11/24 04:40:00;;;;;;;5.53;1.55;;;;;;;5.50;100.00;98481.47;5091081;28;20058;-80
2022/11/24 04:42:27;;;;;;;3.00;1.17;;;;;;;5.60;100.00;98487.53;5083794;28;20044;-80
2022/11/24 04:44:55;;;;;;;6.60;1.60;;;;;;;5.66;100.00;98500.31;5082415;28;20050;-80
2022/11/24 04:47:23;;;;;;;5.95;1.20;;;;;;;5.58;100.00;98470.66;5087191;28;20419;-79
2022/11/24 04:49:50;;;;;;;5.00;1.10;;;;;;;5.70;100.00;98478.41;5083810;28;20086;-82
2022/11/24 04:52:18;;;;;;;10.27;1.35;;;;;;;5.70;100.00;98486.50;5088491;28;20044;-81
2022/11/24 04:54:45;;;;;;;3.97;1.15;;;;;;;5.67;100.00;98493.94;5078801;28;20052;-80
2022/11/24 04:57:16;;;;;;;7.82;1.15;;;;;;;5.66;100.00;98484.16;5087179;28;20044;-84
2022/11/24 04:59:42;;;;;;;16.38;1.42;;;;;;;5.75;100.00;98493.06;5081560;28;20048;-84
2022/11/24 05:02:11;;;;;;;11.32;2.33;;;;;;;5.84;100.00;98504.66;5091011;28;20040;-83
2022/11/24 05:04:38;;;;;;;5.30;1.60;;;;;;;5.82;100.00;98493.22;5090215;28;20044;-85
2022/11/24 05:07:05;;;;;;;8.77;1.70;;;;;;;5.93;100.00;98511.75;5089045;28;20048;-84
2022/11/24 05:09:31;;;;;;;5.65;1.60;;;;;;;5.86;100.00;98518.84;5086079;28;20051;-84
2022/11/24 05:11:58;;;;;;;10.30;1.52;;;;;;;5.90;100.00;98514.81;5088475;28;20463;-84
2022/11/24 05:14:25;;;;;;;7.43;1.23;;;;;;;5.91;100.00;98511.06;5090419;28;20050;-84
2022/11/24 05:16:51;;;;;;;7.60;1.92;;;;;;;5.90;100.00;98530.13;5082763;28;20131;-84
2022/11/24 05:19:20;;;;;;;4.05;1.48;;;;;;;5.82;100.00;98510.25;5087978;28;20562;-84
2022/11/24 05:21:46;;;;;;;6.97;1.63;;;;;;;5.81;100.00;98522.06;5085284;28;20062;-84
2022/11/24 05:24:13;;;;;;;7.68;1.88;;;;;;;5.92;100.00;98536.22;5088702;28;20044;-84
2022/11/24 05:26:43;;;;;;;9.73;1.40;;;;;;;5.87;100.00;98543.97;5083286;28;20289;-84
2022/11/24 05:29:09;;;;;;;10.73;2.10;;;;;;;5.91;100.00;98548.84;5086528;28;20825;-83
2022/11/24 05:31:36;;;;;;;7.40;1.15;;;;;;;5.97;100.00;98553.59;5087580;28;20043;-83
2022/11/24 05:34:02;;;;;;;8.07;1.80;;;;;;;5.88;100.00;98548.34;5087258;28;20051;-83
2022/11/24 05:39:18;;;;;;;8.18;1.73;;;;;;;5.85;100.00;98544.97;5086637;28;20051;-85
2022/11/24 05:41:44;;;;;;;6.70;1.40;;;;;;;5.81;100.00;98540.94;5091345;28;20101;-82
2022/11/24 05:44:11;;;;;;;10.30;1.45;;;;;;;5.79;100.00;98548.34;5091234;28;20131;-81
2022/11/24 05:46:38;;;;;;;6.03;1.45;;;;;;;5.81;100.00;98537.38;5088796;28;20419;-81
2022/11/24 05:49:04;;;;;;;4.35;1.60;;;;;;;5.64;100.00;98531.16;5087047;28;20068;-82
2022/11/24 05:51:32;;;;;;;11.40;2.33;;;;;;;5.65;100.00;98527.47;5087811;28;20072;-82
2022/11/24 05:53:59;;;;;;;5.20;1.10;;;;;;;5.56;100.00;98529.31;5087102;28;20041;-82
2022/11/24 05:56:26;;;;;;;8.93;1.60;;;;;;;5.65;100.00;98524.78;5083092;28;20139;-82
2022/11/24 05:58:52;;;;;;;7.15;1.45;;;;;;;5.62;100.00;98508.94;5086928;28;20043;-82
2022/11/24 06:01:19;;;;;;;8.20;1.70;;;;;;;5.81;100.00;98534.69;5084271;28;20040;-82
2022/11/24 06:03:45;;;;;;;8.27;2.10;;;;;;;5.78;100.00;98517.00;5089220;28;20091;-82
2022/11/24 06:06:12;;;;;;;10.80;1.50;;;;;;;5.86;100.00;98532.34;5086531;28;20414;-82
2022/11/24 06:08:41;;;;;;;13.30;2.00;;;;;;;5.87;100.00;98525.91;5084514;28;20047;-82
2022/11/24 06:11:18;;;;;;;11.88;1.60;;;;;;;5.82;100.00;98512.94;5080735;28;20571;-84
2022/11/24 06:13:47;;;;;;;5.65;1.30;;;;;;;5.96;100.00;98545.63;5081410;28;20054;-81
2022/11/24 06:16:14;;;;;;;7.03;1.30;;;;;;;5.95;100.00;98550.19;5081544;28;20083;-82
2022/11/24 06:18:41;;;;;;;5.13;1.25;;;;;;;5.85;100.00;98522.56;5084756;28;20062;-82
2022/11/24 06:21:07;;;;;;;7.40;1.23;;;;;;;5.96;100.00;98546.50;5085398;28;20391;-82
2022/11/24 06:23:34;;;;;;;8.05;1.13;;;;;;;5.82;100.00;98537.22;5087718;28;20059;-82
2022/11/24 06:26:02;;;;;;;15.10;1.83;;;;;;;5.89;100.00;98537.41;5091558;28;20052;-83
2022/11/24 06:28:29;;;;;;;10.23;1.40;;;;;;;5.92;100.00;98542.44;5092679;28;20078;-83
2022/11/24 06:31:00;;;;;;;7.35;1.48;;;;;;;6.01;100.00;98552.25;5089325;28;20066;-82
2022/11/24 06:33:29;;;;;;;9.65;1.92;;;;;;;5.92;100.00;98541.63;5092449;28;20044;-83
2022/11/24 06:36:00;;;;;;;;;;;;;;;6.03;100.00;98563.69;5092545;28;20134;-82
2022/11/24 06:38:26;;;;;;;4.97;1.52;;;;;;;6.00;100.00;98566.75;5082066;28;19963;-83
2022/11/24 06:40:58;;;;;;;9.48;1.67;;;;;;;6.00;100.00;98560.50;5091326;28;20044;-83
2022/11/24 06:43:28;;;;;;;7.10;1.75;;;;;;;5.96;100.00;98546.50;5086193;28;20048;-83
2022/11/24 06:45:55;;;;;;;8.55;1.80;;;;;;;5.96;100.00;98549.19;5094047;28;20050;-83
2022/11/24 06:48:22;;;;;;;10.23;1.88;;;;;;;5.91;100.00;98548.84;5089593;28;20476;-83
2022/11/24 06:50:48;;;;;;;7.82;1.58;;;;;;;5.94;100.00;98556.59;5079929;28;20052;-85
2022/11/24 06:53:17;;;;;;;8.98;2.75;;;;;;;5.98;100.00;98559.84;5092918;28;20045;-84
2022/11/24 06:55:45;;;;;;;18.73;2.63;;;;;;;6.03;100.00;98574.50;5096685;28;20391;-84
2022/11/24 06:58:14;;;;;;;17.35;3.33;;;;;;;6.11;100.00;98597.09;5087958;28;20043;-83
2022/11/24 07:00:43;;;;;;;10.05;1.88;;;;;;;6.05;100.00;98592.38;5095958;28;20131;-83
2022/11/24 07:03:15;;;;;;;12.38;2.60;;;;;;;5.95;100.00;98587.13;5090826;28;20052;-84
2022/11/24 07:05:42;;;;;;;7.38;2.28;;;;;;;5.97;100.00;98585.13;5085392;28;20048;-83
2022/11/24 07:08:14;;;;;;;7.35;1.92;;;;;;;6.01;100.00;98600.81;5090552;28;20044;-83
2022/11/24 07:10:41;;;;;;;15.48;3.13;;;;;;;5.95;100.00;98606.03;5087694;28;20058;-83
2022/11/24 07:13:10;;;;;;;14.52;2.03;;;;;;;6.01;100.00;98603.50;5083974;28;20044;-83
2022/11/24 07:15:39;;;;;;;13.77;2.30;;;;;;;5.96;100.00;98607.69;5082700;28;20060;-82
2022/11/24 07:18:07;;;;;;;15.23;2.45;;;;;;;6.03;100.00;98636.56;5092246;28;20043;-82
2022/11/24 07:20:33;;;;;;;8.73;2.10;;;;;;;5.90;100.00;98614.63;5092179;28;20059;-83
2022/11/24 07:23:01;;;;;;;18.08;2.75;;;;;;;6.00;100.00;98623.41;5093610;28;20487;-82
2022/11/24 07:25:28;;;;;;;11.07;2.78;;;;;;;5.95;100.00;98625.75;5093604;28;20066;-83
2022/11/24 07:27:58;;;;;;;16.52;3.63;;;;;;;6.06;100.00;98654.28;5093126;28;20052;-83
2022/11/24 07:30:27;;;;;;;8.15;2.40;;;;;;;5.96;100.00;98650.84;5093118;28;20048;-82
2022/11/24 07:32:58;;;;;;;15.57;2.80;;;;;;;5.90;100.00;98641.59;5092310;28;20405;-82
2022/11/24 07:35:26;;;;;;;10.18;2.60;;;;;;;5.82;100.00;98647.81;5086205;28;20048;-81
2022/11/24 07:37:54;;;;;;;12.38;2.83;;;;;;;5.80;100.00;98659.81;5092785;28;20461;-81
2022/11/24 07:40:21;;;;;;;19.08;4.55;;;;;;;5.98;100.00;98675.88;5091550;28;20055;-81
2022/11/24 07:42:48;;;;;;;12.32;2.50;;;;;;;5.93;100.00;98675.47;5092197;28;20058;-81
2022/11/24 07:45:14;;;;;;;17.05;2.92;;;;;;;5.86;100.00;98686.09;5092620;28;20586;-81
2022/11/24 07:47:41;;;;;;;11.13;2.15;;;;;;;5.89;100.00;98685.78;5092556;28;20058;-81
2022/11/24 07:50:09;;;;;;;9.27;2.42;;;;;;;5.85;100.00;98668.22;5088096;28;20127;-81
2022/11/24 07:52:37;;;;;;;9.05;2.40;;;;;;;6.03;100.00;98684.28;5085835;28;20055;-81
2022/11/24 07:55:05;;;;;;;9.00;2.05;;;;;;;5.82;100.00;98668.56;5092498;28;20054;-81
2022/11/24 07:57:32;;;;;;;10.63;1.98;;;;;;;5.93;100.00;98681.75;5092493;28;20131;-81
2022/11/24 07:59:58;;;;;;;10.23;2.38;;;;;;;5.98;100.00;98682.09;5092808;28;20134;-83
2022/11/24 08:02:25;;;;;;;11.65;1.90;;;;;;;5.92;100.00;98669.25;5086187;28;20483;-83
2022/11/24 08:04:51;;;;;;;9.05;2.50;;;;;;;5.91;100.00;98681.03;5090079;28;20135;-83
2022/11/24 08:07:18;;;;;;;10.05;1.83;;;;;;;5.92;100.00;98665.72;5082987;28;20094;-84
2022/11/24 08:09:46;;;;;;;7.35;1.77;;;;;;;5.88;100.00;98667.88;5092757;28;20058;-83
2022/11/24 08:12:12;;;;;;;9.40;1.67;;;;;;;6.02;100.00;98672.66;5091803;28;20044;-83
2022/11/24 08:14:39;;;;;;;10.52;2.35;;;;;;;6.10;100.00;98671.00;5092240;28;20151;-83
2022/11/24 08:17:06;;;;;;;8.98;1.75;;;;;;;6.07;100.00;98691.06;5092201;28;20052;-83
2022/11/24 08:19:33;;;;;;;4.85;1.52;;;;;;;6.06;100.00;98683.97;5090821;28;20131;-83
2022/11/24 08:22:00;;;;;;;10.93;2.30;;;;;;;6.14;100.00;98686.69;5088466;28;20054;-83
2022/11/24 08:24:27;;;;;;;6.10;2.25;;;;;;;6.19;100.00;98705.06;5091918;28;20135;-83
2022/11/24 08:26:55;;;;;;;10.63;2.30;;;;;;;6.03;100.00;98684.28;5092784;28;20135;-84
2022/11/24 08:29:22;;;;;;;10.63;1.85;;;;;;;6.20;100.00;98706.72;5094423;28;20044;-83
2022/11/24 08:31:49;;;;;;;7.60;2.70;;;;;;;6.05;100.00;98687.66;5092838;28;20085;-84
2022/11/24 08:34:16;;;;;;;6.38;1.83;;;;;;;6.11;100.00;98694.25;5091836;28;20380;-84
2022/11/24 08:37:38;;;;;;;7.28;1.80;;;;;;;6.22;100.00;98715.53;5092381;28;20050;-84
2022/11/24 08:40:06;;;;;;;8.50;2.10;;;;;;;6.25;100.00;98717.03;5081058;28;20475;-84
2022/11/24 08:42:34;;;;;;;9.02;1.98;;;;;;;6.24;100.00;98709.97;5091311;28;20081;-81
2022/11/24 08:45:01;;;;;;;9.68;1.98;;;;;;;6.26;100.00;98718.72;5091840;28;20087;-83
2022/11/24 08:47:27;;;;;;;8.55;2.60;;;;;;;6.22;100.00;98706.56;5091044;28;20064;-83
2022/11/24 08:49:54;;;;;;;9.43;1.92;;;;;;;6.20;100.00;98717.53;5090618;28;20044;-84
2022/11/24 08:52:21;;;;;;;10.60;1.33;;;;;;;6.28;100.00;98720.25;5092418;28;20046;-83
2022/11/24 08:54:49;;;;;;;9.20;1.38;;;;;;;6.28;100.00;98720.25;5091304;28;20385;-84
2022/11/24 08:57:15;;;;;;;4.82;1.83;;;;;;;6.30;100.00;98718.22;5089136;28;20052;-84
2022/11/24 08:59:45;;;;;;;3.25;1.50;;;;;;;6.35;100.00;98710.47;5090120;28;20044;-83
2022/11/24 09:02:12;;;;;;;17.98;2.30;;;;;;;6.54;100.00;98740.84;5090468;28;20054;-84
2022/11/24 09:04:38;;;;;;;7.70;2.78;;;;;;;6.40;100.00;98717.19;5090504;28;20514;-84
2022/11/24 09:07:05;;;;;;;9.40;2.70;;;;;;;6.41;100.00;98724.28;5091273;28;20044;-84
2022/11/24 09:09:32;;;;;;;3.80;1.75;;;;;;;6.47;100.00;98729.84;5091160;28;20510;-84
2022/11/24 09:11:58;;;;;;;2.65;1.27;;;;;;;6.54;100.00;98725.47;5091109;28;20518;-84
2022/11/24 09:14:25;;;;;;;5.75;1.33;;;;;;;6.50;100.00;98732.25;5089340;28;20036;-85
2022/11/24 09:16:53;;;;;;;5.80;1.52;;;;;;;6.65;100.00;98750.44;5090875;28;20052;-84
2022/11/24 09:19:20;;;;;;;3.17;1.38;;;;;;;6.74;100.00;98754.81;5083355;28;20046;-84
2022/11/24 09:21:47;;;;;;;7.32;1.88;;;;;;;6.89;100.00;98763.09;5090751;28;20499;-84
2022/11/24 09:24:15;;;;;;;6.15;1.80;;;;;;;6.94;100.00;98758.03;5090472;28;20043;-83
2022/11/24 09:26:42;;;;;;;7.90;1.80;;;;;;;6.90;100.00;98772.88;5090671;28;20050;-84
2022/11/24 09:29:11;;;;;;;9.63;1.38;;;;;;;6.88;100.00;98755.97;5091228;28;20497;-84
2022/11/24 09:31:38;;;;;;;1.50;1.02;;;;;;;7.04;100.00;98769.47;5088022;28;20136;-84
2022/11/24 09:34:08;;;;;;;5.72;2.28;;;;;;;6.97;100.00;98768.50;5093599;28;20044;-84
2022/11/24 09:36:35;;;;;;;5.47;1.73;;;;;;;6.97;100.00;98762.22;5092321;28;20058;-84
2022/11/24 09:39:02;;;;;;;2.42;1.20;;;;;;;6.97;100.00;98756.81;5093331;28;20051;-84
2022/11/24 09:41:39;;;;;;;5.78;1.50;;;;;;;7.18;100.00;98772.47;5093225;28;20054;-84
2022/11/24 09:44:22;;;;;;;6.15;1.45;;;;;;;7.10;100.00;98767.94;5087000;28;20040;-84
2022/11/24 09:46:58;;;;;;;5.38;1.08;;;;;;;7.00;100.00;98769.97;5089293;28;20059;-84
2022/11/24 09:49:33;;;;;;;2.53;1.10;;;;;;;7.05;100.00;98773.03;5082503;28;20059;-84
2022/11/24 09:52:03;;;;;;;2.30;1.25;;;;;;;7.14;100.00;98803.59;5090184;28;20048;-84
2022/11/24 09:54:32;;;;;;;2.47;0.98;;;;;;;7.07;100.00;98795.31;5090669;28;20052;-83
2022/11/24 09:57:01;;;;;;;3.35;1.48;;;;;;;7.14;100.00;98790.09;5087414;28;20052;-84
2022/11/24 09:59:28;;;;;;;8.50;1.20;;;;;;;7.08;100.00;98791.63;5083591;28;20047;-84
2022/11/24 10:01:55;;;;;;;1.77;0.70;;;;;;;7.08;100.00;98791.63;5090106;28;20074;-84
2022/11/24 10:04:26;;;;;;;2.25;0.70;;;;;;;7.01;100.00;98793.31;5083959;28;20051;-85
2022/11/24 10:07:03;;;;;;;1.25;1.00;;;;;;;7.12;100.00;98803.78;5089829;28;20048;-84
2022/11/24 10:09:45;;;;;;;2.67;1.42;;;;;;;7.22;100.00;98817.09;5090943;28;20105;-82
2022/11/24 10:12:22;;;;;;;1.73;0.98;;;;;;;7.15;100.00;98819.66;5083137;28;20068;-82
2022/11/24 10:15:15;;;;;;;0.98;0.73;;;;;;;7.24;100.00;98829.44;5090448;28;20044;-82
2022/11/24 10:17:54;;;;;;;2.55;0.98;;;;;;;7.24;100.00;98821.31;5083499;28;20508;-82
2022/11/24 10:20:28;;;;;;;0.60;0.60;;;;;;;7.39;100.00;98836.81;5083040;28;20134;-83
2022/11/24 10:23:10;;;;;;;1.75;0.90;;;;;;;7.40;100.00;98827.69;5088483;28;20083;-83
2022/11/24 10:25:45;;;;;;;2.45;0.80;;;;;;;7.50;100.00;98836.47;5090995;28;20048;-83
2022/11/24 10:28:14;;;;;;;2.67;0.70;;;;;;;7.46;100.00;98815.34;5083051;28;20043;-83
2022/11/24 10:30:42;;;;;;;0.40;0.40;;;;;;;7.37;100.00;98809.13;5091432;28;20594;-84
2022/11/24 10:33:17;;;;;;;3.33;0.63;;;;;;;7.28;100.00;98823.69;5089483;28;20044;-84
2022/11/24 10:35:48;;;;;;;0.50;0.50;;;;;;;7.26;100.00;98816.56;5091554;28;20048;-84
2022/11/24 10:38:30;;;;;;;1.50;0.70;;;;;;;7.46;100.00;98826.19;5084038;28;20131;-83
2022/11/24 10:41:03;;;;;;;0.45;0.40;;;;;;;7.43;100.00;98827.34;5089273;28;20502;-83
2022/11/24 10:43:30;;;;;;;5.57;0.75;;;;;;;7.38;100.00;98816.22;5090906;28;20481;-83
2022/11/24 10:46:05;;;;;;;1.95;0.55;;;;;;;7.53;100.00;98802.81;5090182;28;20064;-84
2022/11/24 10:48:40;;;;;;;2.45;0.82;;;;;;;7.61;100.00;98797.38;5090550;28;20055;-84
2022/11/24 10:51:32;;;;;;;1.25;0.70;;;;;;;7.66;100.00;98808.50;5090291;28;20487;-84
2022/11/24 10:54:06;;;;;;;4.00;1.13;;;;;;;7.66;100.00;98819.31;5089444;28;20155;-84
2022/11/24 10:56:40;;;;;;;4.18;1.00;;;;;;;7.55;100.00;98800.78;5090586;28;20059;-83
2022/11/24 10:59:28;;;;;;;0.55;0.55;;;;;;;7.58;100.00;98813.97;5087104;28;20496;-83
2022/11/24 11:01:55;;;;;;;1.05;0.60;;;;;;;7.54;100.00;98816.19;5089919;28;20558;-84
2022/11/24 11:04:26;;;;;;;0.90;0.50;;;;;;;7.36;100.00;98816.41;5081837;28;20037;-85
2022/11/24 11:07:06;;;;;;;1.05;0.60;;;;;;;7.29;100.00;98820.81;5090100;28;20062;-84
2022/11/24 11:09:34;;;;;;;;;;;;;;;7.24;100.00;98812.34;5091703;28;20050;-84
2022/11/24 11:12:09;;;;;;;1.05;0.70;;;;;;;7.19;100.00;98798.50;5093956;28;20267;-84
2022/11/24 11:14:36;;;;;;;2.35;0.60;;;;;;;7.30;100.00;98813.53;5088697;28;20047;-85
2022/11/24 11:17:26;;;;;;;3.55;1.30;;;;;;;7.33;100.00;98813.19;5089730;28;20046;-85
2022/11/24 11:19:54;;;;;;;1.33;0.68;;;;;;;7.39;100.00;98809.78;5092849;28;20449;-84
2022/11/24 11:22:26;;;;;;;1.23;0.60;;;;;;;7.67;100.00;98820.19;5092907;28;20132;-84
2022/11/24 11:25:07;;;;;;;1.45;0.80;;;;;;;7.79;100.00;98821.50;5094000;28;20374;-85
2022/11/24 11:27:33;;;;;;;0.95;0.80;;;;;;;7.89;100.00;98818.56;5084991;28;20055;-85
2022/11/24 11:30:17;;;;;;;1.38;0.73;;;;;;;7.93;100.00;98834.28;5093420;28;20170;-85
2022/11/24 11:32:53;;;;;;;2.10;0.75;;;;;;;8.03;100.00;98831.34;5091025;28;20050;-84
2022/11/24 11:35:20;;;;;;;2.78;1.00;;;;;;;7.91;100.00;98809.25;5093273;28;20051;-85
2022/11/24 11:37:48;;;;;;;1.08;0.90;;;;;;;8.14;100.00;98820.16;5093604;28;20058;-85
2022/11/24 11:40:21;;;;;;;4.68;1.00;;;;;;;8.24;100.00;98828.03;5093670;28;20047;-85
2022/11/24 11:42:54;;;;;;;0.85;0.65;;;;;;;8.31;100.00;98830.88;5092550;28;20506;-85